Time;durP1;ratioP1;P1;durP2;ratioP2;P2;SDS_P1;SDS_P2;PMS_P1;PMS_P2;Temp;Humidity;BMP_temperature;BMP_pressure;BME280_temperature;BME280_humidity;BME280_pressure;Samples;Min_cycle;Max_cycle;Signal;HPM_P1;HPM_P2
2023/01/02 00:00:17;;;;;;;;;;;17.70;65.40;;;;;;5027445;28;20027;-91
2023/01/02 00:02:43;;;;;;;;;;;17.70;65.40;;;;;;5029478;28;19925;-89
2023/01/02 00:05:08;;;;;;;;;;;17.60;65.50;;;;;;5028196;28;19941;-91
2023/01/02 00:07:34;;;;;;;;;;;17.50;65.80;;;;;;5027504;28;19925;-90
2023/01/02 00:09:59;;;;;;;;;;;17.50;65.70;;;;;;5030577;28;19921;-91
2023/01/02 00:12:25;;;;;;;;;;;17.60;65.60;;;;;;5032144;28;19921;-88
2023/01/02 00:14:50;;;;;;;;;;;17.60;65.60;;;;;;5029132;28;19921;-92
2023/01/02 00:17:17;;;;;;;;;;;17.60;65.60;;;;;;5028247;28;20287;-89
2023/01/02 00:19:43;;;;;;;;;;;17.50;65.70;;;;;;5028903;28;19920;-89
2023/01/02 00:22:08;;;;;;;;;;;17.50;65.80;;;;;;5029944;28;19921;-89
2023/01/02 00:24:34;;;;;;;;;;;17.40;65.80;;;;;;5026228;28;19928;-90
2023/01/02 00:26:59;;;;;;;;;;;17.50;65.80;;;;;;5023627;28;19921;-92
2023/01/02 00:29:25;;;;;;;;;;;17.40;66.00;;;;;;5028114;28;19920;-91
2023/01/02 00:31:50;;;;;;;;;;;17.40;65.90;;;;;;5029878;28;19926;-89
2023/01/02 00:34:16;;;;;;;;;;;17.50;66.00;;;;;;5049332;28;20481;-93
2023/01/02 00:36:41;;;;;;;;;;;17.50;66.00;;;;;;5047142;28;19986;-92
2023/01/02 00:39:06;;;;;;;;;;;17.50;65.90;;;;;;5043247;28;19939;-90
2023/01/02 00:41:32;;;;;;;;;;;17.60;65.80;;;;;;5032381;28;20014;-90
2023/01/02 00:43:57;;;;;;;;;;;17.60;66.00;;;;;;5042825;28;19913;-92
2023/01/02 00:46:23;;;;;;;;;;;17.70;65.90;;;;;;5043122;28;19909;-93
2023/01/02 00:48:48;;;;;;;;;;;17.80;65.70;;;;;;5030928;28;19917;-89
2023/01/02 00:51:14;;;;;;;;;;;17.80;65.70;;;;;;5032350;28;19913;-89
2023/01/02 00:53:40;;;;;;;;;;;17.90;65.40;;;;;;5032100;28;19921;-90
2023/01/02 00:56:05;;;;;;;;;;;18.00;65.40;;;;;;5042897;28;20507;-89
2023/01/02 00:58:31;;;;;;;;;;;18.10;65.20;;;;;;5054824;28;19975;-90
2023/01/02 01:00:56;;;;;;;;;;;18.20;65.20;;;;;;5049943;28;19991;-91
2023/01/02 01:03:22;;;;;;;;;;;18.20;64.90;;;;;;5042461;28;19917;-92
2023/01/02 01:05:47;;;;;;;;;;;18.30;64.80;;;;;;5032285;28;20279;-92
2023/01/02 01:08:13;;;;;;;;;;;18.30;64.50;;;;;;5030937;28;19917;-91
2023/01/02 01:10:38;;;;;;;;;;;18.30;64.40;;;;;;5032336;28;19909;-92
2023/01/02 01:13:04;;;;;;;;;;;18.40;64.60;;;;;;5030409;28;19925;-91
2023/01/02 01:15:29;;;;;;;;;;;18.40;64.20;;;;;;5031940;28;19909;-91
2023/01/02 01:17:55;;;;;;;;;;;18.40;64.20;;;;;;5030525;28;19929;-90
2023/01/02 01:20:20;;;;;;;;;;;18.50;64.30;;;;;;5030171;28;19992;-90
2023/01/02 01:22:46;;;;;;;;;;;18.50;64.30;;;;;;5031838;28;20260;-91
2023/01/02 01:25:11;;;;;;;;;;;18.60;64.20;;;;;;5031603;28;20368;-90
2023/01/02 01:27:37;;;;;;;;;;;18.50;64.10;;;;;;5031713;28;19917;-89
2023/01/02 01:30:03;;;;;;;;;;;18.40;64.00;;;;;;5030056;28;19996;-91
2023/01/02 01:32:29;;;;;;;;;;;18.30;64.20;;;;;;5029792;28;19917;-90
2023/01/02 01:34:54;;;;;;;;;;;18.20;64.30;;;;;;5029917;28;19959;-91
2023/01/02 01:37:20;;;;;;;;;;;18.10;64.60;;;;;;5029437;28;19925;-89
2023/01/02 01:39:45;;;;;;;;;;;18.10;64.70;;;;;;5029939;28;20007;-93
2023/01/02 01:42:14;;;;;;;;;;;18.10;64.90;;;;;;5029493;28;19936;-90
2023/01/02 01:44:40;;;;;;;;;;;18.00;64.80;;;;;;5019963;28;19916;-93
2023/01/02 01:47:10;;;;;;;;;;;18.00;65.10;;;;;;5010128;28;19918;-89
2023/01/02 01:49:36;;;;;;;;;;;18.00;65.00;;;;;;5009495;28;19914;-91
2023/01/02 01:52:03;;;;;;;;;;;17.90;64.80;;;;;;5011582;28;19923;-91
2023/01/02 01:54:49;;;;;;;;;;;18.00;65.40;;;;;;5021346;28;19920;-90
2023/01/02 01:57:27;;;;;;;;;;;18.00;65.30;;;;;;5031163;28;19929;-92
2023/01/02 01:59:52;;;;;;;;;;;18.00;64.90;;;;;;5029805;28;19963;-89
2023/01/02 02:02:18;;;;;;;;;;;18.20;64.70;;;;;;5029885;28;20359;-90
2023/01/02 02:04:44;;;;;;;;;;;18.20;64.50;;;;;;5030846;28;19917;-90
2023/01/02 02:07:10;;;;;;;;;;;18.30;64.50;;;;;;5029658;28;19917;-92
2023/01/02 02:10:02;;;;;;;;;;;18.20;64.50;;;;;;5029321;28;19913;-92
2023/01/02 02:12:28;;;;;;;;;;;18.30;64.20;;;;;;5025287;28;19978;-92
2023/01/02 02:14:53;;;;;;;;;;;18.20;64.00;;;;;;5033216;28;20171;-90
2023/01/02 02:17:25;;;;;;;;;;;18.10;64.10;;;;;;5031591;28;19932;-90
2023/01/02 02:20:10;;;;;;;;;;;18.10;64.40;;;;;;5031114;28;20316;-92
2023/01/02 02:22:51;;;;;;;;;;;18.10;64.50;;;;;;5031603;28;20383;-93
2023/01/02 02:25:23;;;;;;;;;;;18.10;64.80;;;;;;5029786;28;20280;-92
2023/01/02 02:28:27;;;;;;;;;;;18.20;65.00;;;;;;5033514;28;19921;-90
2023/01/02 02:30:52;;;;;;;;;;;18.20;64.80;;;;;;4994260;28;19910;-91
2023/01/02 02:33:36;;;;;;;;;;;18.20;64.70;;;;;;4977032;28;20522;-89
2023/01/02 02:36:04;;;;;;;;;;;18.10;64.60;;;;;;5003883;28;19961;-90
2023/01/02 02:38:51;;;;;;;;;;;17.90;65.20;;;;;;5027910;28;19925;-88
2023/01/02 02:41:24;;;;;;;;;;;17.90;65.20;;;;;;5009793;28;19914;-89
2023/01/02 02:44:09;;;;;;;;;;;17.90;65.50;;;;;;5026720;28;19917;-89
2023/01/02 02:46:46;;;;;;;;;;;18.00;65.40;;;;;;5032789;28;19917;-88
2023/01/02 02:49:36;;;;;;;;;;;18.00;65.70;;;;;;5030159;28;19920;-93
2023/01/02 02:52:06;;;;;;;;;;;18.00;65.70;;;;;;5031566;28;19921;-92
2023/01/02 02:54:39;;;;;;;;;;;18.00;65.70;;;;;;5029747;28;19917;-92
2023/01/02 02:57:06;;;;;;;;;;;17.90;65.80;;;;;;5029282;28;19925;-94
2023/01/02 02:59:32;;;;;;;;;;;17.90;65.80;;;;;;5030355;28;19920;-92
2023/01/02 03:01:58;;;;;;;;;;;17.90;65.70;;;;;;5024611;28;19948;-92
2023/01/02 03:04:23;;;;;;;;;;;17.90;65.70;;;;;;5032910;28;19967;-92
2023/01/02 03:07:07;;;;;;;;;;;17.80;65.90;;;;;;5031768;28;20012;-92
2023/01/02 03:09:51;;;;;;;;;;;17.80;65.60;;;;;;5035049;28;19916;-89
2023/01/02 03:12:23;;;;;;;;;;;17.80;65.90;;;;;;5033298;28;19913;-88
2023/01/02 03:15:07;;;;;;;;;;;17.80;66.00;;;;;;5032294;28;20032;-92
2023/01/02 03:17:46;;;;;;;;;;;17.80;65.90;;;;;;5026726;28;19924;-92
2023/01/02 03:20:13;;;;;;;;;;;17.80;66.00;;;;;;5034524;28;19924;-90
2023/01/02 03:22:41;;;;;;;;;;;17.80;66.10;;;;;;5034196;28;20364;-92
2023/01/02 03:25:08;;;;;;;;;;;17.80;66.10;;;;;;5029087;28;19917;-92
2023/01/02 03:27:35;;;;;;;;;;;17.80;66.10;;;;;;5017583;28;19909;-88
2023/01/02 03:30:06;;;;;;;;;;;17.70;65.80;;;;;;5037223;28;19924;-90
2023/01/02 03:32:34;;;;;;;;;;;17.70;66.10;;;;;;5034944;28;19909;-93
2023/01/02 03:35:01;;;;;;;;;;;17.70;66.10;;;;;;5033572;28;19917;-92
2023/01/02 03:37:29;;;;;;;;;;;17.60;66.10;;;;;;5037240;28;20290;-89
2023/01/02 03:39:57;;;;;;;;;;;17.60;66.30;;;;;;5033898;28;19948;-91
2023/01/02 03:42:27;;;;;;;;;;;17.70;66.10;;;;;;5041473;28;20011;-92
2023/01/02 03:44:53;;;;;;;;;;;17.70;66.10;;;;;;5034382;28;19917;-90
2023/01/02 03:47:37;;;;;;;;;;;17.70;66.10;;;;;;5031853;28;20337;-91
2023/01/02 03:50:08;;;;;;;;;;;17.80;65.80;;;;;;5036151;28;19939;-90
2023/01/02 03:52:33;;;;;;;;;;;17.80;66.00;;;;;;5031870;28;20008;-92
2023/01/02 03:54:59;;;;;;;;;;;17.80;66.10;;;;;;5032320;28;20547;-92
2023/01/02 03:57:31;;;;;;;;;;;17.80;66.10;;;;;;5032036;28;19932;-93
2023/01/02 04:00:13;;;;;;;;;;;17.80;66.00;;;;;;5037597;28;19918;-92
2023/01/02 04:02:53;;;;;;;;;;;17.90;65.90;;;;;;5034846;28;19914;-92
2023/01/02 04:05:24;;;;;;;;;;;18.00;65.90;;;;;;5031382;28;20486;-90
2023/01/02 04:07:52;;;;;;;;;;;18.00;65.80;;;;;;5033036;28;19909;-90
2023/01/02 04:10:18;;;;;;;;;;;18.00;65.80;;;;;;5033900;28;20404;-89
2023/01/02 04:12:49;;;;;;;;;;;17.90;65.60;;;;;;5032799;28;20352;-92
2023/01/02 04:15:16;;;;;;;;;;;17.80;65.70;;;;;;5031662;28;19921;-88
2023/01/02 04:17:48;;;;;;;;;;;17.80;65.70;;;;;;5031750;28;19917;-89
2023/01/02 04:20:25;;;;;;;;;;;17.80;65.70;;;;;;5031575;28;19975;-92
2023/01/02 04:22:59;;;;;;;;;;;17.80;65.60;;;;;;5033225;28;19979;-89
2023/01/02 04:25:27;;;;;;;;;;;17.80;65.80;;;;;;5034891;28;19921;-91
2023/01/02 04:27:56;;;;;;;;;;;17.80;65.80;;;;;;5032780;28;20475;-89
2023/01/02 04:30:22;;;;;;;;;;;17.80;65.80;;;;;;5033837;28;19960;-92
2023/01/02 04:32:47;;;;;;;;;;;17.80;65.80;;;;;;5031438;28;19960;-90
2023/01/02 04:35:22;;;;;;;;;;;17.80;65.80;;;;;;5031747;28;19927;-90
2023/01/02 04:37:48;;;;;;;;;;;17.80;65.90;;;;;;5035985;28;19915;-90
2023/01/02 04:40:24;;;;;;;;;;;17.80;65.70;;;;;;5035489;28;19948;-91
2023/01/02 04:42:50;;;;;;;;;;;17.80;66.00;;;;;;5033373;28;19917;-88
2023/01/02 04:45:16;;;;;;;;;;;17.70;65.70;;;;;;5033338;28;19923;-91
2023/01/02 04:47:41;;;;;;;;;;;17.70;65.60;;;;;;5033810;28;19936;-89
2023/01/02 04:50:07;;;;;;;;;;;17.60;65.80;;;;;;5042345;28;19905;-90
2023/01/02 04:52:33;;;;;;;;;;;17.50;66.00;;;;;;5030742;28;19920;-91
2023/01/02 04:54:58;;;;;;;;;;;17.50;66.20;;;;;;5031116;28;19967;-91
2023/01/02 04:57:24;;;;;;;;;;;17.50;66.20;;;;;;5033106;28;20480;-90
2023/01/02 04:59:49;;;;;;;;;;;17.40;66.40;;;;;;5032332;28;20064;-88
2023/01/02 05:02:15;;;;;;;;;;;17.50;66.40;;;;;;5032678;28;19909;-91
2023/01/02 05:04:40;;;;;;;;;;;17.50;66.50;;;;;;5036989;28;19917;-92
2023/01/02 05:07:06;;;;;;;;;;;17.50;66.40;;;;;;5032905;28;19913;-93
2023/01/02 05:09:31;;;;;;;;;;;17.50;66.50;;;;;;5031122;28;19917;-94
2023/01/02 05:11:57;;;;;;;;;;;17.60;66.50;;;;;;5032335;28;19971;-90
2023/01/02 05:14:22;;;;;;;;;;;17.50;66.50;;;;;;5031698;28;19956;-89
2023/01/02 05:16:48;;;;;;;;;;;17.60;66.50;;;;;;5032503;28;19913;-89
2023/01/02 05:19:13;;;;;;;;;;;17.50;66.50;;;;;;5036684;28;19924;-89
2023/01/02 05:24:25;;;;;;;;;;;17.60;66.30;;;;;;5035804;28;19970;-89
2023/01/02 05:26:51;;;;;;;;;;;17.60;66.50;;;;;;5031048;28;19916;-88
2023/01/02 05:29:16;;;;;;;;;;;17.60;66.40;;;;;;5033180;28;19917;-93
2023/01/02 05:31:42;;;;;;;;;;;17.50;66.40;;;;;;5028207;28;19913;-93
2023/01/02 05:34:10;;;;;;;;;;;17.50;66.40;;;;;;5030095;28;20008;-89
2023/01/02 05:36:35;;;;;;;;;;;17.60;66.30;;;;;;5033132;28;19952;-91
2023/01/02 05:39:00;;;;;;;;;;;17.50;66.40;;;;;;5031917;28;20504;-89
2023/01/02 05:41:26;;;;;;;;;;;17.60;66.30;;;;;;5030570;28;19913;-89
2023/01/02 05:43:53;;;;;;;;;;;17.60;66.20;;;;;;5030862;28;19932;-90
2023/01/02 05:46:19;;;;;;;;;;;17.60;66.40;;;;;;5033279;28;19924;-89
2023/01/02 05:48:45;;;;;;;;;;;17.60;66.30;;;;;;5033806;28;19959;-92
2023/01/02 05:51:11;;;;;;;;;;;17.60;66.20;;;;;;5032794;28;20540;-92
2023/01/02 05:53:37;;;;;;;;;;;17.70;66.20;;;;;;5029452;28;19913;-90
2023/01/02 05:56:07;;;;;;;;;;;17.80;66.00;;;;;;5030905;28;19920;-93
2023/01/02 05:58:36;;;;;;;;;;;17.80;66.10;;;;;;5030026;28;19936;-89
2023/01/02 06:01:03;;;;;;;;;;;17.80;66.00;;;;;;5039887;28;19917;-88
2023/01/02 06:03:28;;;;;;;;;;;17.80;66.00;;;;;;5021439;28;19932;-90
2023/01/02 06:05:54;;;;;;;;;;;17.90;65.90;;;;;;5033431;28;19917;-90
2023/01/02 06:08:19;;;;;;;;;;;18.00;65.80;;;;;;5038051;28;19914;-90
2023/01/02 06:10:49;;;;;;;;;;;17.90;65.90;;;;;;5028749;28;19919;-91
2023/01/02 06:13:17;;;;;;;;;;;18.10;65.60;;;;;;5031334;28;19928;-91
2023/01/02 06:15:42;;;;;;;;;;;18.20;65.50;;;;;;5031145;28;19913;-92
2023/01/02 06:18:08;;;;;;;;;;;18.30;65.40;;;;;;5030479;28;20386;-90
2023/01/02 06:20:35;;;;;;;;;;;18.30;65.10;;;;;;5025285;28;19964;-91
2023/01/02 06:23:00;;;;;;;;;;;18.30;64.80;;;;;;5011526;28;19959;-88
2023/01/02 06:25:26;;;;;;;;;;;18.50;64.90;;;;;;5014971;28;19952;-91
2023/01/02 06:27:52;;;;;;;;;;;18.50;64.50;;;;;;5029757;28;19974;-90
2023/01/02 06:30:17;;;;;;;;;;;18.60;64.50;;;;;;5030563;28;19983;-91
2023/01/02 06:32:43;;;;;;;;;;;18.60;64.50;;;;;;5030827;28;19959;-90
2023/01/02 06:35:08;;;;;;;;;;;18.50;64.20;;;;;;5030793;28;20395;-90
2023/01/02 06:37:34;;;;;;;;;;;18.50;64.20;;;;;;5031748;28;19992;-91
2023/01/02 06:40:02;;;;;;;;;;;18.50;63.90;;;;;;5028592;28;19921;-90
2023/01/02 06:42:28;;;;;;;;;;;18.40;63.90;;;;;;5032994;28;19956;-90
2023/01/02 06:44:54;;;;;;;;;;;18.40;63.90;;;;;;5037413;28;19917;-90
2023/01/02 06:47:20;;;;;;;;;;;18.40;63.90;;;;;;5035484;28;19939;-91
2023/01/02 06:49:45;;;;;;;;;;;18.30;64.10;;;;;;5036673;28;20066;-89
2023/01/02 06:52:11;;;;;;;;;;;18.40;64.10;;;;;;5037040;28;19935;-91
2023/01/02 06:54:37;;;;;;;;;;;18.40;64.00;;;;;;5037237;28;20297;-91
2023/01/02 06:57:05;;;;;;;;;;;18.30;63.90;;;;;;5036779;28;19917;-90
2023/01/02 06:59:30;;;;;;;;;;;18.30;64.30;;;;;;5035947;28;19928;-92
2023/01/02 07:01:56;;;;;;;;;;;18.30;64.20;;;;;;5032665;28;20536;-91
2023/01/02 07:04:21;;;;;;;;;;;18.40;64.10;;;;;;5034204;28;19928;-88
2023/01/02 07:06:47;;;;;;;;;;;18.50;64.00;;;;;;5031046;28;19913;-90
2023/01/02 07:09:12;;;;;;;;;;;18.60;63.90;;;;;;5033508;28;20479;-91
2023/01/02 07:11:38;;;;;;;;;;;18.60;64.00;;;;;;5034537;28;19909;-91
2023/01/02 07:14:04;;;;;;;;;;;18.60;63.90;;;;;;5031901;28;19917;-88
2023/01/02 07:16:29;;;;;;;;;;;18.50;63.80;;;;;;5033998;28;19909;-89
2023/01/02 07:18:55;;;;;;;;;;;18.50;63.70;;;;;;5033092;28;19991;-90
2023/01/02 07:21:20;;;;;;;;;;;18.50;63.70;;;;;;5033024;28;20099;-91
2023/01/02 07:23:46;;;;;;;;;;;18.40;63.60;;;;;;5033911;28;19920;-91
2023/01/02 07:26:12;;;;;;;;;;;18.40;63.60;;;;;;5032261;28;19953;-91
2023/01/02 07:28:38;;;;;;;;;;;18.30;63.40;;;;;;5032718;28;19909;-90
2023/01/02 07:31:04;;;;;;;;;;;18.30;63.70;;;;;;5032428;28;20249;-94
2023/01/02 07:33:30;;;;;;;;;;;18.30;63.70;;;;;;5034249;28;20008;-92
2023/01/02 07:35:59;;;;;;;;;;;18.30;63.70;;;;;;5036502;28;19940;-89
2023/01/02 07:38:28;;;;;;;;;;;18.30;64.10;;;;;;5031652;28;20370;-91
2023/01/02 07:40:54;;;;;;;;;;;18.40;64.00;;;;;;5033076;28;19917;-92
2023/01/02 07:43:19;;;;;;;;;;;18.40;63.90;;;;;;5032303;28;19910;-92
2023/01/02 07:45:45;;;;;;;;;;;18.50;63.80;;;;;;5035517;28;19944;-92
2023/01/02 07:48:10;;;;;;;;;;;18.50;63.90;;;;;;5032120;28;19928;-92
2023/01/02 07:50:36;;;;;;;;;;;18.60;63.60;;;;;;5032421;28;19913;-91
2023/01/02 07:53:02;;;;;;;;;;;18.50;63.00;;;;;;5033817;28;19948;-90
2023/01/02 07:55:27;;;;;;;;;;;18.50;62.70;;;;;;5033939;28;19936;-92
2023/01/02 07:57:52;;;;;;;;;;;18.50;63.00;;;;;;5039395;28;19941;-90
2023/01/02 08:00:18;;;;;;;;;;;18.60;63.00;;;;;;5031368;28;19928;-91
2023/01/02 08:02:44;;;;;;;;;;;18.50;62.10;;;;;;5031601;28;19913;-92
2023/01/02 08:05:10;;;;;;;;;;;18.60;63.00;;;;;;5023759;28;19921;-92
2023/01/02 08:07:35;;;;;;;;;;;18.70;62.80;;;;;;5012201;28;20371;-90
2023/01/02 08:10:01;;;;;;;;;;;18.70;63.10;;;;;;5021016;28;19987;-90
2023/01/02 08:12:27;;;;;;;;;;;18.70;62.90;;;;;;5034826;28;19909;-91
2023/01/02 08:14:52;;;;;;;;;;;18.70;62.90;;;;;;5034397;28;20279;-89
2023/01/02 08:17:18;;;;;;;;;;;18.70;62.70;;;;;;5032375;28;19944;-89
2023/01/02 08:19:43;;;;;;;;;;;18.70;62.60;;;;;;5036237;28;20344;-90
2023/01/02 08:22:08;;;;;;;;;;;18.60;62.90;;;;;;5030870;28;20004;-89
2023/01/02 08:24:34;;;;;;;;;;;18.50;63.00;;;;;;5033715;28;20422;-89
2023/01/02 08:26:59;;;;;;;;;;;18.40;63.20;;;;;;5031650;28;19913;-91
2023/01/02 08:29:25;;;;;;;;;;;18.40;63.60;;;;;;5032176;28;20004;-91
2023/01/02 08:31:51;;;;;;;;;;;18.30;63.50;;;;;;5026367;28;19916;-93
2023/01/02 08:34:16;;;;;;;;;;;18.30;63.80;;;;;;5035072;28;19917;-90
2023/01/02 08:36:42;;;;;;;;;;;18.30;63.90;;;;;;5032116;28;19917;-91
2023/01/02 08:39:08;;;;;;;;;;;18.20;63.90;;;;;;5031094;28;20267;-91
2023/01/02 08:41:34;;;;;;;;;;;18.20;64.20;;;;;;5030354;28;19924;-92
2023/01/02 08:44:00;;;;;;;;;;;18.10;64.40;;;;;;5032759;28;19993;-91
2023/01/02 08:46:26;;;;;;;;;;;18.10;64.30;;;;;;5036236;28;19917;-90
2023/01/02 08:48:52;;;;;;;;;;;18.20;64.50;;;;;;5031389;28;19917;-91
2023/01/02 08:51:17;;;;;;;;;;;18.20;64.40;;;;;;5022101;28;20427;-90
2023/01/02 08:53:43;;;;;;;;;;;18.30;64.50;;;;;;5017386;28;20101;-89
2023/01/02 08:56:28;;;;;;;;;;;18.30;64.50;;;;;;5034677;28;19897;-91
2023/01/02 08:58:57;;;;;;;;;;;18.50;64.70;;;;;;5026083;28;19929;-92
2023/01/02 09:01:24;;;;;;;;;;;18.60;64.40;;;;;;5021665;28;19998;-91
2023/01/02 09:03:49;;;;;;;;;;;18.70;64.30;;;;;;5029492;28;19921;-89
2023/01/02 09:06:15;;;;;;;;;;;18.70;64.00;;;;;;5031381;28;19917;-89
2023/01/02 09:08:40;;;;;;;;;;;18.60;62.80;;;;;;5010882;28;19925;-91
2023/01/02 09:11:13;;;;;;;;;;;18.20;63.10;;;;;;5016186;28;19925;-90
2023/01/02 09:13:39;;;;;;;;;;;18.10;63.30;;;;;;5020198;28;20016;-93
2023/01/02 09:16:08;;;;;;;;;;;18.00;63.60;;;;;;5026861;28;20020;-90
2023/01/02 09:18:38;;;;;;;;;;;17.90;64.00;;;;;;5023375;28;19925;-90
2023/01/02 09:21:04;;;;;;;;;;;17.80;64.20;;;;;;5023177;28;19924;-89
2023/01/02 09:23:30;;;;;;;;;;;17.80;64.30;;;;;;5022673;28;19921;-91
2023/01/02 09:26:03;;;;;;;;;;;17.80;64.50;;;;;;5025787;28;20008;-91
2023/01/02 09:28:29;;;;;;;;;;;17.80;64.60;;;;;;5027229;28;20296;-90
2023/01/02 09:30:54;;;;;;;;;;;17.80;64.60;;;;;;5027942;28;19913;-91
2023/01/02 09:33:22;;;;;;;;;;;17.80;64.70;;;;;;5024431;28;19921;-90
2023/01/02 09:35:48;;;;;;;;;;;17.80;64.70;;;;;;5017644;28;20007;-90
2023/01/02 09:38:13;;;;;;;;;;;17.80;64.70;;;;;;5025691;28;20019;-91
2023/01/02 09:40:44;;;;;;;;;;;17.90;64.80;;;;;;5034668;28;19921;-90
2023/01/02 09:43:10;;;;;;;;;;;17.90;65.00;;;;;;5022924;28;19924;-90
2023/01/02 09:45:49;;;;;;;;;;;18.00;64.90;;;;;;5028328;28;20363;-92
2023/01/02 09:48:16;;;;;;;;;;;18.00;65.00;;;;;;5025712;28;19960;-90
2023/01/02 09:50:43;;;;;;;;;;;18.10;65.10;;;;;;5024150;28;19925;-90
2023/01/02 09:53:10;;;;;;;;;;;18.20;65.00;;;;;;5024296;28;20571;-89
2023/01/02 09:55:38;;;;;;;;;;;18.30;64.90;;;;;;5027523;28;20331;-91
2023/01/02 09:58:21;;;;;;;;;;;18.40;65.00;;;;;;5019485;28;20032;-90
2023/01/02 10:00:48;;;;;;;;;;;18.50;64.90;;;;;;5019309;28;19923;-89
2023/01/02 10:03:32;;;;;;;;;;;18.50;64.80;;;;;;5023625;28;19918;-89
2023/01/02 10:06:04;;;;;;;;;;;18.60;64.80;;;;;;5024091;28;19917;-90
2023/01/02 10:08:49;;;;;;;;;;;18.60;64.60;;;;;;5019441;28;20396;-91
2023/01/02 10:11:33;;;;;;;;;;;18.60;64.20;;;;;;5015027;28;19967;-89
2023/01/02 10:14:10;;;;;;;;;;;18.50;64.30;;;;;;5025517;28;20574;-92
2023/01/02 10:16:40;;;;;;;;;;;18.40;64.00;;;;;;5042636;28;19913;-92
2023/01/02 10:19:11;;;;;;;;;;;18.40;64.30;;;;;;5026975;28;19929;-90
2023/01/02 10:21:37;;;;;;;;;;;18.30;64.40;;;;;;5014830;28;19917;-89
2023/01/02 10:24:05;;;;;;;;;;;18.30;64.40;;;;;;5020738;28;19921;-90
2023/01/02 10:26:33;;;;;;;;;;;18.20;64.50;;;;;;5049793;28;19936;-90
2023/01/02 10:29:19;;;;;;;;;;;18.20;64.60;;;;;;5020809;28;19925;-89
2023/01/02 10:31:59;;;;;;;;;;;18.20;64.70;;;;;;5015184;28;19921;-89
2023/01/02 10:34:28;;;;;;;;;;;18.20;64.80;;;;;;5016401;28;19952;-90
2023/01/02 10:36:54;;;;;;;;;;;18.20;65.00;;;;;;5017465;28;19917;-90
2023/01/02 10:39:21;;;;;;;;;;;18.30;65.10;;;;;;5024465;28;19928;-90
2023/01/02 10:41:49;;;;;;;;;;;18.40;65.10;;;;;;5135323;23;20397;-91
2023/01/02 10:44:20;;;;;;;;;;;18.50;65.00;;;;;;5023996;28;19921;-91
2023/01/02 10:46:46;;;;;;;;;;;18.60;64.80;;;;;;5032134;28;20010;-91
2023/01/02 10:49:11;;;;;;;;;;;18.60;64.70;;;;;;5045189;28;20443;-89
2023/01/02 10:51:41;;;;;;;;;;;18.70;64.60;;;;;;5039709;28;19924;-89
2023/01/02 10:54:10;;;;;;;;;;;18.70;63.90;;;;;;5043507;28;20020;-91
2023/01/02 10:56:37;;;;;;;;;;;18.70;64.10;;;;;;5032587;28;19920;-91
2023/01/02 10:59:03;;;;;;;;;;;18.80;64.10;;;;;;5039823;28;19967;-91
2023/01/02 11:01:29;;;;;;;;;;;18.80;64.10;;;;;;5040648;28;19921;-91
2023/01/02 11:03:54;;;;;;;;;;;18.80;64.00;;;;;;5041486;28;20402;-89
2023/01/02 11:06:29;;;;;;;;;;;18.80;63.90;;;;;;5057054;28;19929;-89
2023/01/02 11:08:56;;;;;;;;;;;18.80;63.40;;;;;;5042862;28;19923;-88
2023/01/02 11:11:23;;;;;;;;;;;18.80;63.30;;;;;;5045511;28;19931;-90
2023/01/02 11:13:54;;;;;;;;;;;18.80;63.40;;;;;;5029611;28;20007;-90
2023/01/02 11:16:21;;;;;;;;;;;18.80;63.40;;;;;;5041849;28;20507;-89
2023/01/02 11:18:51;;;;;;;;;;;18.80;63.50;;;;;;5042112;28;19995;-91
2023/01/02 11:21:23;;;;;;;;;;;18.70;63.30;;;;;;5054980;28;19924;-89
2023/01/02 11:23:49;;;;;;;;;;;18.70;63.50;;;;;;5043454;28;20280;-89
2023/01/02 11:26:19;;;;;;;;;;;18.60;63.40;;;;;;5042390;28;19921;-92
2023/01/02 11:28:49;;;;;;;;;;;18.50;63.40;;;;;;5050097;28;19912;-90
2023/01/02 11:31:15;;;;;;;;;;;18.40;63.30;;;;;;5033372;28;19921;-90
2023/01/02 11:33:44;;;;;;;;;;;18.40;63.30;;;;;;5037153;28;20007;-90
2023/01/02 11:36:10;;;;;;;;;;;18.30;63.40;;;;;;5037851;28;19933;-90
2023/01/02 11:39:04;;;;;;;;;;;18.30;63.20;;;;;;5041925;28;19995;-90
2023/01/02 11:44:31;;;;;;;;;;;18.30;63.50;;;;;;5036637;28;19990;-93
2023/01/02 11:46:57;;;;;;;;;;;18.30;63.30;;;;;;5049206;28;19916;-92
2023/01/02 11:49:25;;;;;;;;;;;18.30;63.00;;;;;;5057256;28;20015;-90
2023/01/02 11:52:11;;;;;;;;;;;18.30;63.00;;;;;;5049240;28;19952;-90
2023/01/02 11:54:49;;;;;;;;;;;18.30;63.00;;;;;;5040905;28;19971;-92
2023/01/02 11:57:28;;;;;;;;;;;18.30;63.20;;;;;;5044386;28;19931;-91
2023/01/02 11:59:54;;;;;;;;;;;18.30;62.60;;;;;;5048535;28;19963;-92
2023/01/02 12:02:23;;;;;;;;;;;18.20;62.80;;;;;;5038800;28;19963;-90
2023/01/02 12:04:49;;;;;;;;;;;18.20;62.90;;;;;;5037718;28;19921;-89
2023/01/02 12:07:33;;;;;;;;;;;18.20;63.00;;;;;;5073229;28;21825;-91
2023/01/02 12:10:02;;;;;;;;;;;18.20;63.00;;;;;;5042230;28;19970;-90
2023/01/02 12:12:27;;;;;;;;;;;18.10;63.00;;;;;;5040060;28;19982;-92
2023/01/02 12:15:13;;;;;;;;;;;18.10;63.10;;;;;;5048747;28;20315;-91
2023/01/02 12:17:46;;;;;;;;;;;18.00;63.10;;;;;;5029129;28;20696;-88
2023/01/02 12:20:35;;;;;;;;;;;17.90;63.10;;;;;;5047807;28;19919;-91
2023/01/02 12:23:16;;;;;;;;;;;17.80;63.40;;;;;;5054118;28;20397;-89
2023/01/02 12:25:51;;;;;;;;;;;17.80;63.50;;;;;;5043362;28;20470;-89
2023/01/02 12:28:23;;;;;;;;;;;17.70;63.70;;;;;;5044228;28;20489;-93
2023/01/02 12:30:53;;;;;;;;;;;17.70;63.70;;;;;;5036645;28;20409;-88
2023/01/02 12:33:21;;;;;;;;;;;17.60;63.80;;;;;;5045231;28;20403;-90
2023/01/02 12:35:47;;;;;;;;;;;17.60;64.10;;;;;;5039650;28;19913;-91
2023/01/02 12:38:18;;;;;;;;;;;17.60;64.20;;;;;;5047120;28;19927;-89
2023/01/02 12:40:50;;;;;;;;;;;17.50;64.10;;;;;;5059526;28;19916;-91
2023/01/02 12:43:35;;;;;;;;;;;17.50;63.90;;;;;;5044188;28;19975;-89
2023/01/02 12:46:13;;;;;;;;;;;17.40;63.80;;;;;;5044873;28;19928;-88
2023/01/02 12:48:57;;;;;;;;;;;17.30;63.70;;;;;;5039113;28;19920;-88
2023/01/02 12:51:22;;;;;;;;;;;17.30;63.90;;;;;;5058160;28;19932;-90
2023/01/02 12:54:00;;;;;;;;;;;17.20;64.10;;;;;;5036380;28;20571;-91
2023/01/02 12:56:29;;;;;;;;;;;17.20;64.00;;;;;;5062337;28;19933;-89
2023/01/02 12:59:18;;;;;;;;;;;17.10;64.10;;;;;;5058792;28;19950;-90
2023/01/02 13:02:11;;;;;;;;;;;17.10;64.00;;;;;;5025516;28;22408;-90
2023/01/02 13:04:39;;;;;;;;;;;17.00;64.10;;;;;;5040622;28;19993;-91
2023/01/02 13:07:13;;;;;;;;;;;17.00;64.50;;;;;;5038091;28;19917;-92
2023/01/02 13:09:40;;;;;;;;;;;17.10;64.70;;;;;;5045131;28;19963;-91
2023/01/02 13:12:18;;;;;;;;;;;17.10;64.60;;;;;;5043919;28;20692;-91
2023/01/02 13:14:55;;;;;;;;;;;17.10;64.50;;;;;;5044188;28;19917;-90
2023/01/02 13:17:24;;;;;;;;;;;17.10;64.50;;;;;;5053096;28;19925;-93
2023/01/02 13:20:09;;;;;;;;;;;17.10;64.70;;;;;;5046759;28;19959;-91
2023/01/02 13:22:57;;;;;;;;;;;17.20;64.70;;;;;;5045544;28;20371;-90
2023/01/02 13:25:23;;;;;;;;;;;17.30;64.70;;;;;;5056950;28;19916;-92
2023/01/02 13:27:49;;;;;;;;;;;17.30;64.70;;;;;;5042967;28;20032;-90
2023/01/02 13:30:33;;;;;;;;;;;17.30;64.70;;;;;;5044495;28;19948;-92
2023/01/02 13:33:03;;;;;;;;;;;17.30;64.70;;;;;;5037674;28;19931;-93
2023/01/02 13:35:31;;;;;;;;;;;17.30;64.70;;;;;;5045326;28;19916;-91
2023/01/02 13:38:01;;;;;;;;;;;17.30;64.50;;;;;;5043540;28;19932;-89
2023/01/02 13:40:31;;;;;;;;;;;17.40;64.40;;;;;;5040893;28;19921;-88
2023/01/02 13:43:02;;;;;;;;;;;17.30;64.20;;;;;;5046406;28;20696;-90
2023/01/02 13:45:29;;;;;;;;;;;17.40;64.00;;;;;;5043508;28;20286;-90
2023/01/02 13:47:59;;;;;;;;;;;17.40;63.90;;;;;;5044871;28;20391;-91
2023/01/02 13:50:32;;;;;;;;;;;17.40;64.10;;;;;;5041188;28;19916;-89
2023/01/02 13:53:10;;;;;;;;;;;17.40;63.50;;;;;;5039196;28;19921;-90
2023/01/02 13:55:57;;;;;;;;;;;17.30;63.20;;;;;;5043676;28;19956;-90
2023/01/02 13:58:24;;;;;;;;;;;17.30;63.20;;;;;;5041210;28;20152;-90
2023/01/02 14:00:51;;;;;;;;;;;17.30;63.40;;;;;;5041732;28;19943;-92
2023/01/02 14:03:16;;;;;;;;;;;17.20;63.20;;;;;;5044148;28;19913;-91
2023/01/02 14:06:04;;;;;;;;;;;17.20;63.40;;;;;;5048614;28;19924;-92
2023/01/02 14:08:37;;;;;;;;;;;17.20;63.10;;;;;;5051485;28;19959;-90
2023/01/02 14:11:09;;;;;;;;;;;17.10;63.10;;;;;;5048694;28;19917;-90
2023/01/02 14:13:41;;;;;;;;;;;17.10;63.20;;;;;;5049377;28;19920;-90
2023/01/02 14:16:21;;;;;;;;;;;17.00;63.10;;;;;;5045638;28;19912;-91
2023/01/02 14:19:06;;;;;;;;;;;16.90;63.10;;;;;;5046322;28;19968;-91
2023/01/02 14:21:34;;;;;;;;;;;16.90;63.00;;;;;;5037653;28;19960;-91
2023/01/02 14:24:10;;;;;;;;;;;16.80;63.20;;;;;;5033297;28;19920;-89
2023/01/02 14:26:37;;;;;;;;;;;16.80;63.30;;;;;;5047934;28;19975;-91
2023/01/02 14:29:15;;;;;;;;;;;16.80;63.20;;;;;;5045806;28;19917;-90
2023/01/02 14:31:41;;;;;;;;;;;16.80;63.10;;;;;;5041269;28;20218;-91
2023/01/02 14:34:09;;;;;;;;;;;16.70;63.10;;;;;;5032315;28;19921;-93